sensor_id;sensor_type;location;lat;lon;timestamp;P1;durP1;ratioP1;P2;durP2;ratioP2
10005;SDS011;5042;42.626;23.382;2023-06-14T00:00:20;7.72;;;6.53;;
10005;SDS011;5042;42.626;23.382;2023-06-14T00:02:47;8.38;;;6.70;;
10005;SDS011;5042;42.626;23.382;2023-06-14T00:05:15;8.77;;;6.22;;
10005;SDS011;5042;42.626;23.382;2023-06-14T00:07:42;8.00;;;6.40;;
10005;SDS011;5042;42.626;23.382;2023-06-14T00:10:09;10.82;;;6.45;;
10005;SDS011;5042;42.626;23.382;2023-06-14T00:12:37;9.23;;;7.15;;
10005;SDS011;5042;42.626;23.382;2023-06-14T00:15:05;9.95;;;6.07;;
10005;SDS011;5042;42.626;23.382;2023-06-14T00:17:34;7.40;;;6.00;;
10005;SDS011;5042;42.626;23.382;2023-06-14T00:20:01;10.90;;;6.38;;
10005;SDS011;5042;42.626;23.382;2023-06-14T00:22:31;7.95;;;6.28;;
10005;SDS011;5042;42.626;23.382;2023-06-14T00:24:58;8.07;;;6.75;;
10005;SDS011;5042;42.626;23.382;2023-06-14T00:27:25;10.77;;;6.85;;
10005;SDS011;5042;42.626;23.382;2023-06-14T00:29:51;8.73;;;6.68;;
10005;SDS011;5042;42.626;23.382;2023-06-14T00:32:18;9.15;;;6.80;;
10005;SDS011;5042;42.626;23.382;2023-06-14T00:34:49;8.95;;;6.85;;
10005;SDS011;5042;42.626;23.382;2023-06-14T00:37:16;9.95;;;6.95;;
10005;SDS011;5042;42.626;23.382;2023-06-14T00:39:44;9.82;;;6.95;;
10005;SDS011;5042;42.626;23.382;2023-06-14T00:42:11;9.52;;;6.22;;
10005;SDS011;5042;42.626;23.382;2023-06-14T00:44:49;7.68;;;6.40;;
10005;SDS011;5042;42.626;23.382;2023-06-14T00:47:16;9.88;;;7.10;;
10005;SDS011;5042;42.626;23.382;2023-06-14T00:49:43;10.63;;;7.13;;
10005;SDS011;5042;42.626;23.382;2023-06-14T00:52:11;8.77;;;6.68;;
10005;SDS011;5042;42.626;23.382;2023-06-14T00:54:39;9.43;;;7.05;;
10005;SDS011;5042;42.626;23.382;2023-06-14T00:57:08;10.02;;;6.80;;
10005;SDS011;5042;42.626;23.382;2023-06-14T00:59:37;9.98;;;6.80;;
10005;SDS011;5042;42.626;23.382;2023-06-14T01:02:08;8.85;;;6.75;;
10005;SDS011;5042;42.626;23.382;2023-06-14T01:04:34;10.20;;;6.78;;
10005;SDS011;5042;42.626;23.382;2023-06-14T01:07:02;9.27;;;6.85;;
10005;SDS011;5042;42.626;23.382;2023-06-14T01:09:41;8.68;;;7.03;;
10005;SDS011;5042;42.626;23.382;2023-06-14T01:12:17;10.20;;;7.00;;
10005;SDS011;5042;42.626;23.382;2023-06-14T01:14:50;9.95;;;6.82;;
10005;SDS011;5042;42.626;23.382;2023-06-14T01:17:20;9.27;;;6.35;;
10005;SDS011;5042;42.626;23.382;2023-06-14T01:19:48;12.30;;;7.30;;
10005;SDS011;5042;42.626;23.382;2023-06-14T01:22:22;8.25;;;6.28;;
10005;SDS011;5042;42.626;23.382;2023-06-14T01:24:52;9.20;;;7.32;;
10005;SDS011;5042;42.626;23.382;2023-06-14T01:27:20;8.48;;;6.68;;
10005;SDS011;5042;42.626;23.382;2023-06-14T01:29:49;8.95;;;6.72;;
10005;SDS011;5042;42.626;23.382;2023-06-14T01:32:21;10.63;;;7.07;;
10005;SDS011;5042;42.626;23.382;2023-06-14T01:34:49;9.13;;;6.07;;
10005;SDS011;5042;42.626;23.382;2023-06-14T01:37:16;7.97;;;6.10;;
10005;SDS011;5042;42.626;23.382;2023-06-14T01:39:44;8.68;;;6.72;;
10005;SDS011;5042;42.626;23.382;2023-06-14T01:42:13;8.57;;;6.60;;
10005;SDS011;5042;42.626;23.382;2023-06-14T01:44:41;7.75;;;6.10;;
10005;SDS011;5042;42.626;23.382;2023-06-14T01:47:09;8.23;;;5.53;;
10005;SDS011;5042;42.626;23.382;2023-06-14T01:49:37;7.63;;;5.90;;
10005;SDS011;5042;42.626;23.382;2023-06-14T01:52:05;7.78;;;5.97;;
10005;SDS011;5042;42.626;23.382;2023-06-14T01:54:34;6.78;;;5.82;;
10005;SDS011;5042;42.626;23.382;2023-06-14T01:57:07;8.05;;;5.95;;
10005;SDS011;5042;42.626;23.382;2023-06-14T01:59:36;9.45;;;5.80;;
10005;SDS011;5042;42.626;23.382;2023-06-14T02:02:03;8.82;;;5.97;;
10005;SDS011;5042;42.626;23.382;2023-06-14T02:04:30;7.88;;;6.32;;
10005;SDS011;5042;42.626;23.382;2023-06-14T02:06:57;7.90;;;5.55;;
10005;SDS011;5042;42.626;23.382;2023-06-14T02:09:24;8.35;;;6.18;;
10005;SDS011;5042;42.626;23.382;2023-06-14T02:11:51;7.47;;;6.25;;
10005;SDS011;5042;42.626;23.382;2023-06-14T02:14:18;7.72;;;6.07;;
10005;SDS011;5042;42.626;23.382;2023-06-14T02:16:46;8.85;;;6.63;;
10005;SDS011;5042;42.626;23.382;2023-06-14T02:19:15;6.85;;;5.88;;
10005;SDS011;5042;42.626;23.382;2023-06-14T02:21:42;7.47;;;5.68;;
10005;SDS011;5042;42.626;23.382;2023-06-14T02:24:08;6.88;;;6.13;;
10005;SDS011;5042;42.626;23.382;2023-06-14T02:26:36;8.00;;;5.75;;
10005;SDS011;5042;42.626;23.382;2023-06-14T02:29:03;7.90;;;6.47;;
10005;SDS011;5042;42.626;23.382;2023-06-14T02:31:30;7.15;;;5.85;;
10005;SDS011;5042;42.626;23.382;2023-06-14T02:33:59;6.40;;;5.63;;
10005;SDS011;5042;42.626;23.382;2023-06-14T02:36:26;6.55;;;5.45;;
10005;SDS011;5042;42.626;23.382;2023-06-14T02:38:54;5.18;;;4.63;;
10005;SDS011;5042;42.626;23.382;2023-06-14T02:41:22;8.00;;;5.47;;
10005;SDS011;5042;42.626;23.382;2023-06-14T02:43:49;5.35;;;4.78;;
10005;SDS011;5042;42.626;23.382;2023-06-14T02:46:16;5.32;;;4.80;;
10005;SDS011;5042;42.626;23.382;2023-06-14T02:48:43;5.88;;;4.85;;
10005;SDS011;5042;42.626;23.382;2023-06-14T02:51:11;6.10;;;4.72;;
10005;SDS011;5042;42.626;23.382;2023-06-14T02:53:38;6.47;;;4.55;;
10005;SDS011;5042;42.626;23.382;2023-06-14T02:56:05;5.57;;;4.78;;
10005;SDS011;5042;42.626;23.382;2023-06-14T02:58:32;5.40;;;4.50;;
10005;SDS011;5042;42.626;23.382;2023-06-14T03:00:59;5.72;;;4.78;;
10005;SDS011;5042;42.626;23.382;2023-06-14T03:03:28;8.02;;;5.60;;
10005;SDS011;5042;42.626;23.382;2023-06-14T03:05:55;5.63;;;4.55;;
10005;SDS011;5042;42.626;23.382;2023-06-14T03:08:23;6.25;;;4.40;;
10005;SDS011;5042;42.626;23.382;2023-06-14T03:10:52;6.05;;;4.70;;
10005;SDS011;5042;42.626;23.382;2023-06-14T03:13:19;5.60;;;4.95;;
10005;SDS011;5042;42.626;23.382;2023-06-14T03:15:47;8.93;;;4.80;;
10005;SDS011;5042;42.626;23.382;2023-06-14T03:18:15;7.05;;;4.88;;
10005;SDS011;5042;42.626;23.382;2023-06-14T03:20:42;5.65;;;4.55;;
10005;SDS011;5042;42.626;23.382;2023-06-14T03:23:10;7.18;;;4.55;;
10005;SDS011;5042;42.626;23.382;2023-06-14T03:25:38;5.75;;;4.97;;
10005;SDS011;5042;42.626;23.382;2023-06-14T03:28:07;7.05;;;4.80;;
10005;SDS011;5042;42.626;23.382;2023-06-14T03:30:34;7.10;;;4.25;;
10005;SDS011;5042;42.626;23.382;2023-06-14T03:33:00;7.10;;;4.78;;
10005;SDS011;5042;42.626;23.382;2023-06-14T03:35:27;5.78;;;4.55;;
10005;SDS011;5042;42.626;23.382;2023-06-14T03:37:54;5.68;;;4.60;;
10005;SDS011;5042;42.626;23.382;2023-06-14T03:40:22;5.93;;;4.97;;
10005;SDS011;5042;42.626;23.382;2023-06-14T03:42:53;6.85;;;4.40;;
10005;SDS011;5042;42.626;23.382;2023-06-14T03:45:19;7.32;;;5.00;;
10005;SDS011;5042;42.626;23.382;2023-06-14T03:47:46;5.50;;;4.88;;
10005;SDS011;5042;42.626;23.382;2023-06-14T03:50:13;6.45;;;5.22;;
10005;SDS011;5042;42.626;23.382;2023-06-14T03:52:40;7.25;;;5.20;;
10005;SDS011;5042;42.626;23.382;2023-06-14T03:55:08;6.90;;;5.60;;
10005;SDS011;5042;42.626;23.382;2023-06-14T03:57:35;9.48;;;5.32;;
10005;SDS011;5042;42.626;23.382;2023-06-14T04:00:04;7.75;;;5.95;;
10005;SDS011;5042;42.626;23.382;2023-06-14T04:02:32;7.25;;;5.70;;
10005;SDS011;5042;42.626;23.382;2023-06-14T04:04:59;5.53;;;4.95;;
10005;SDS011;5042;42.626;23.382;2023-06-14T04:07:27;5.63;;;4.85;;
10005;SDS011;5042;42.626;23.382;2023-06-14T04:09:54;6.55;;;5.18;;
10005;SDS011;5042;42.626;23.382;2023-06-14T04:12:21;5.93;;;4.68;;
10005;SDS011;5042;42.626;23.382;2023-06-14T04:14:48;5.95;;;5.13;;
10005;SDS011;5042;42.626;23.382;2023-06-14T04:17:17;5.88;;;4.95;;
10005;SDS011;5042;42.626;23.382;2023-06-14T04:19:44;7.68;;;5.30;;
10005;SDS011;5042;42.626;23.382;2023-06-14T04:22:11;7.07;;;5.47;;
10005;SDS011;5042;42.626;23.382;2023-06-14T04:24:37;6.47;;;5.13;;
10005;SDS011;5042;42.626;23.382;2023-06-14T04:27:04;6.47;;;4.72;;
10005;SDS011;5042;42.626;23.382;2023-06-14T04:29:32;7.90;;;5.43;;
10005;SDS011;5042;42.626;23.382;2023-06-14T04:31:58;7.15;;;5.32;;
10005;SDS011;5042;42.626;23.382;2023-06-14T04:34:28;6.47;;;5.80;;
10005;SDS011;5042;42.626;23.382;2023-06-14T04:36:59;8.60;;;6.03;;
10005;SDS011;5042;42.626;23.382;2023-06-14T04:39:26;9.98;;;6.00;;
10005;SDS011;5042;42.626;23.382;2023-06-14T04:41:53;7.57;;;5.43;;
10005;SDS011;5042;42.626;23.382;2023-06-14T04:44:22;7.78;;;5.57;;
10005;SDS011;5042;42.626;23.382;2023-06-14T04:46:55;5.43;;;4.75;;
10005;SDS011;5042;42.626;23.382;2023-06-14T04:49:24;9.18;;;6.07;;
10005;SDS011;5042;42.626;23.382;2023-06-14T04:51:53;7.60;;;5.53;;
10005;SDS011;5042;42.626;23.382;2023-06-14T04:54:24;8.68;;;6.15;;
10005;SDS011;5042;42.626;23.382;2023-06-14T04:56:51;7.78;;;6.10;;
10005;SDS011;5042;42.626;23.382;2023-06-14T04:59:18;7.75;;;5.25;;
10005;SDS011;5042;42.626;23.382;2023-06-14T05:01:45;6.95;;;5.22;;
10005;SDS011;5042;42.626;23.382;2023-06-14T05:04:12;7.35;;;5.70;;
10005;SDS011;5042;42.626;23.382;2023-06-14T05:06:40;6.32;;;5.30;;
10005;SDS011;5042;42.626;23.382;2023-06-14T05:09:08;8.02;;;5.80;;
10005;SDS011;5042;42.626;23.382;2023-06-14T05:11:34;8.82;;;6.47;;
10005;SDS011;5042;42.626;23.382;2023-06-14T05:14:01;12.27;;;6.10;;
10005;SDS011;5042;42.626;23.382;2023-06-14T05:16:28;8.07;;;6.18;;
10005;SDS011;5042;42.626;23.382;2023-06-14T05:18:55;8.35;;;6.10;;
10005;SDS011;5042;42.626;23.382;2023-06-14T05:21:23;9.57;;;6.22;;
10005;SDS011;5042;42.626;23.382;2023-06-14T05:23:49;9.68;;;6.70;;
10005;SDS011;5042;42.626;23.382;2023-06-14T05:26:18;9.73;;;6.55;;
10005;SDS011;5042;42.626;23.382;2023-06-14T05:28:45;8.07;;;6.55;;
10005;SDS011;5042;42.626;23.382;2023-06-14T05:31:12;10.93;;;8.20;;
10005;SDS011;5042;42.626;23.382;2023-06-14T05:33:38;10.85;;;7.20;;
10005;SDS011;5042;42.626;23.382;2023-06-14T05:36:05;10.02;;;7.57;;
10005;SDS011;5042;42.626;23.382;2023-06-14T05:38:32;11.35;;;7.40;;
10005;SDS011;5042;42.626;23.382;2023-06-14T05:40:59;11.57;;;7.68;;
10005;SDS011;5042;42.626;23.382;2023-06-14T05:43:27;11.77;;;7.18;;
10005;SDS011;5042;42.626;23.382;2023-06-14T05:45:54;11.43;;;7.90;;
10005;SDS011;5042;42.626;23.382;2023-06-14T05:48:20;11.30;;;7.45;;
10005;SDS011;5042;42.626;23.382;2023-06-14T05:50:47;11.85;;;8.50;;
10005;SDS011;5042;42.626;23.382;2023-06-14T05:53:14;13.18;;;8.23;;
10005;SDS011;5042;42.626;23.382;2023-06-14T05:55:41;12.77;;;7.95;;
10005;SDS011;5042;42.626;23.382;2023-06-14T05:58:07;10.93;;;8.02;;
10005;SDS011;5042;42.626;23.382;2023-06-14T06:00:37;12.82;;;8.88;;
10005;SDS011;5042;42.626;23.382;2023-06-14T06:03:03;11.90;;;8.07;;
10005;SDS011;5042;42.626;23.382;2023-06-14T06:05:33;11.75;;;8.10;;
10005;SDS011;5042;42.626;23.382;2023-06-14T06:07:59;12.82;;;9.25;;
10005;SDS011;5042;42.626;23.382;2023-06-14T06:10:26;13.55;;;8.25;;
10005;SDS011;5042;42.626;23.382;2023-06-14T06:12:53;13.15;;;8.05;;
10005;SDS011;5042;42.626;23.382;2023-06-14T06:15:20;10.48;;;8.38;;
10005;SDS011;5042;42.626;23.382;2023-06-14T06:17:48;13.60;;;8.63;;
10005;SDS011;5042;42.626;23.382;2023-06-14T06:20:16;13.93;;;8.90;;
10005;SDS011;5042;42.626;23.382;2023-06-14T06:22:42;12.57;;;8.27;;
10005;SDS011;5042;42.626;23.382;2023-06-14T06:25:09;16.10;;;10.27;;
10005;SDS011;5042;42.626;23.382;2023-06-14T06:27:36;17.65;;;10.05;;
10005;SDS011;5042;42.626;23.382;2023-06-14T06:30:03;15.18;;;10.73;;
10005;SDS011;5042;42.626;23.382;2023-06-14T06:32:31;12.55;;;9.07;;
10005;SDS011;5042;42.626;23.382;2023-06-14T06:34:59;11.90;;;8.55;;
10005;SDS011;5042;42.626;23.382;2023-06-14T06:37:26;20.45;;;13.90;;
10005;SDS011;5042;42.626;23.382;2023-06-14T06:39:52;19.13;;;13.27;;
10005;SDS011;5042;42.626;23.382;2023-06-14T06:42:19;15.30;;;10.32;;
10005;SDS011;5042;42.626;23.382;2023-06-14T06:44:46;15.82;;;9.70;;
10005;SDS011;5042;42.626;23.382;2023-06-14T06:47:13;13.48;;;9.48;;
10005;SDS011;5042;42.626;23.382;2023-06-14T06:49:39;15.90;;;9.20;;
10005;SDS011;5042;42.626;23.382;2023-06-14T06:52:08;14.65;;;8.50;;
10005;SDS011;5042;42.626;23.382;2023-06-14T06:54:35;13.05;;;8.73;;
10005;SDS011;5042;42.626;23.382;2023-06-14T06:57:01;13.10;;;9.27;;
10005;SDS011;5042;42.626;23.382;2023-06-14T06:59:28;14.82;;;9.45;;
10005;SDS011;5042;42.626;23.382;2023-06-14T07:01:55;10.95;;;8.13;;
10005;SDS011;5042;42.626;23.382;2023-06-14T07:04:22;16.63;;;9.43;;
10005;SDS011;5042;42.626;23.382;2023-06-14T07:06:49;13.23;;;8.77;;
10005;SDS011;5042;42.626;23.382;2023-06-14T07:09:17;13.20;;;8.75;;
10005;SDS011;5042;42.626;23.382;2023-06-14T07:11:45;10.82;;;8.27;;
10005;SDS011;5042;42.626;23.382;2023-06-14T07:14:13;12.90;;;8.52;;
10005;SDS011;5042;42.626;23.382;2023-06-14T07:16:39;13.73;;;8.15;;
10005;SDS011;5042;42.626;23.382;2023-06-14T07:19:08;14.05;;;8.45;;
10005;SDS011;5042;42.626;23.382;2023-06-14T07:21:35;12.93;;;8.45;;
10005;SDS011;5042;42.626;23.382;2023-06-14T07:24:04;14.70;;;8.90;;
10005;SDS011;5042;42.626;23.382;2023-06-14T07:26:33;9.43;;;8.07;;
10005;SDS011;5042;42.626;23.382;2023-06-14T07:29:00;10.73;;;7.57;;
10005;SDS011;5042;42.626;23.382;2023-06-14T07:31:27;10.30;;;7.28;;
10005;SDS011;5042;42.626;23.382;2023-06-14T07:33:54;9.88;;;7.10;;
10005;SDS011;5042;42.626;23.382;2023-06-14T07:36:21;9.95;;;7.75;;
10005;SDS011;5042;42.626;23.382;2023-06-14T07:38:48;9.07;;;7.70;;
10005;SDS011;5042;42.626;23.382;2023-06-14T07:41:15;10.60;;;8.00;;
10005;SDS011;5042;42.626;23.382;2023-06-14T07:43:43;10.55;;;7.93;;
10005;SDS011;5042;42.626;23.382;2023-06-14T07:46:10;11.02;;;6.70;;
10005;SDS011;5042;42.626;23.382;2023-06-14T07:48:37;9.20;;;7.28;;
10005;SDS011;5042;42.626;23.382;2023-06-14T07:51:04;12.13;;;7.88;;
10005;SDS011;5042;42.626;23.382;2023-06-14T07:53:31;9.13;;;7.68;;
10005;SDS011;5042;42.626;23.382;2023-06-14T07:55:57;11.57;;;8.30;;
10005;SDS011;5042;42.626;23.382;2023-06-14T07:58:25;11.35;;;8.10;;
10005;SDS011;5042;42.626;23.382;2023-06-14T08:00:53;12.50;;;9.30;;
10005;SDS011;5042;42.626;23.382;2023-06-14T08:03:20;10.00;;;8.07;;
10005;SDS011;5042;42.626;23.382;2023-06-14T08:05:47;13.57;;;11.90;;
10005;SDS011;5042;42.626;23.382;2023-06-14T08:08:14;14.00;;;8.32;;
10005;SDS011;5042;42.626;23.382;2023-06-14T08:10:41;15.38;;;7.93;;
10005;SDS011;5042;42.626;23.382;2023-06-14T08:13:08;9.55;;;7.68;;
10005;SDS011;5042;42.626;23.382;2023-06-14T08:15:35;10.35;;;7.40;;
10005;SDS011;5042;42.626;23.382;2023-06-14T08:18:03;8.80;;;7.22;;
10005;SDS011;5042;42.626;23.382;2023-06-14T08:20:30;9.13;;;7.47;;
10005;SDS011;5042;42.626;23.382;2023-06-14T08:22:57;11.13;;;6.93;;
10005;SDS011;5042;42.626;23.382;2023-06-14T08:25:24;10.00;;;7.18;;
10005;SDS011;5042;42.626;23.382;2023-06-14T08:27:51;9.95;;;8.00;;
10005;SDS011;5042;42.626;23.382;2023-06-14T08:30:17;10.82;;;7.97;;
10005;SDS011;5042;42.626;23.382;2023-06-14T08:32:44;7.40;;;6.15;;
10005;SDS011;5042;42.626;23.382;2023-06-14T08:35:12;11.32;;;8.63;;
10005;SDS011;5042;42.626;23.382;2023-06-14T08:37:39;10.65;;;7.78;;
10005;SDS011;5042;42.626;23.382;2023-06-14T08:40:07;12.40;;;9.45;;
10005;SDS011;5042;42.626;23.382;2023-06-14T08:42:44;11.07;;;8.35;;
10005;SDS011;5042;42.626;23.382;2023-06-14T08:45:13;11.32;;;8.23;;
10005;SDS011;5042;42.626;23.382;2023-06-14T08:47:40;10.77;;;7.53;;
10005;SDS011;5042;42.626;23.382;2023-06-14T08:50:07;10.70;;;7.55;;
10005;SDS011;5042;42.626;23.382;2023-06-14T08:52:37;11.32;;;7.88;;
10005;SDS011;5042;42.626;23.382;2023-06-14T08:55:05;10.77;;;7.70;;
10005;SDS011;5042;42.626;23.382;2023-06-14T08:57:34;10.85;;;8.02;;
10005;SDS011;5042;42.626;23.382;2023-06-14T09:00:03;9.52;;;7.90;;
10005;SDS011;5042;42.626;23.382;2023-06-14T09:02:36;9.52;;;7.28;;
10005;SDS011;5042;42.626;23.382;2023-06-14T09:05:03;9.85;;;7.60;;
10005;SDS011;5042;42.626;23.382;2023-06-14T09:07:31;8.35;;;7.28;;
10005;SDS011;5042;42.626;23.382;2023-06-14T09:10:09;9.27;;;7.20;;
10005;SDS011;5042;42.626;23.382;2023-06-14T09:12:37;9.98;;;7.38;;
10005;SDS011;5042;42.626;23.382;2023-06-14T09:15:05;11.05;;;6.82;;
10005;SDS011;5042;42.626;23.382;2023-06-14T09:17:33;8.48;;;6.53;;
10005;SDS011;5042;42.626;23.382;2023-06-14T09:20:01;8.82;;;7.03;;
10005;SDS011;5042;42.626;23.382;2023-06-14T09:22:31;9.15;;;6.72;;
10005;SDS011;5042;42.626;23.382;2023-06-14T09:24:58;7.78;;;6.55;;
10005;SDS011;5042;42.626;23.382;2023-06-14T09:27:27;10.57;;;7.10;;
10005;SDS011;5042;42.626;23.382;2023-06-14T09:29:55;9.13;;;6.78;;
10005;SDS011;5042;42.626;23.382;2023-06-14T09:32:22;9.75;;;6.80;;
10005;SDS011;5042;42.626;23.382;2023-06-14T09:34:49;10.18;;;7.40;;
10005;SDS011;5042;42.626;23.382;2023-06-14T09:37:25;8.55;;;6.75;;
10005;SDS011;5042;42.626;23.382;2023-06-14T09:39:53;10.25;;;6.95;;
10005;SDS011;5042;42.626;23.382;2023-06-14T09:42:20;8.43;;;6.32;;
10005;SDS011;5042;42.626;23.382;2023-06-14T09:44:49;9.43;;;6.45;;
10005;SDS011;5042;42.626;23.382;2023-06-14T09:47:17;7.53;;;6.15;;
10005;SDS011;5042;42.626;23.382;2023-06-14T09:49:44;9.10;;;6.85;;
10005;SDS011;5042;42.626;23.382;2023-06-14T09:52:14;7.88;;;6.30;;
10005;SDS011;5042;42.626;23.382;2023-06-14T09:54:42;8.50;;;6.72;;
10005;SDS011;5042;42.626;23.382;2023-06-14T09:57:11;7.50;;;6.53;;
10005;SDS011;5042;42.626;23.382;2023-06-14T09:59:39;8.05;;;6.65;;
10005;SDS011;5042;42.626;23.382;2023-06-14T10:02:10;9.45;;;7.20;;
10005;SDS011;5042;42.626;23.382;2023-06-14T10:04:40;7.43;;;6.18;;
10005;SDS011;5042;42.626;23.382;2023-06-14T10:07:13;10.05;;;6.15;;
10005;SDS011;5042;42.626;23.382;2023-06-14T10:09:43;10.63;;;6.50;;
10005;SDS011;5042;42.626;23.382;2023-06-14T10:12:14;12.38;;;6.22;;
10005;SDS011;5042;42.626;23.382;2023-06-14T10:14:46;7.38;;;5.63;;
10005;SDS011;5042;42.626;23.382;2023-06-14T10:17:19;7.00;;;6.03;;
10005;SDS011;5042;42.626;23.382;2023-06-14T10:19:54;9.23;;;6.65;;
10005;SDS011;5042;42.626;23.382;2023-06-14T10:22:26;8.23;;;6.25;;
10005;SDS011;5042;42.626;23.382;2023-06-14T10:24:59;7.43;;;5.95;;
10005;SDS011;5042;42.626;23.382;2023-06-14T10:27:26;6.90;;;5.85;;
10005;SDS011;5042;42.626;23.382;2023-06-14T10:30:02;8.30;;;6.22;;
10005;SDS011;5042;42.626;23.382;2023-06-14T10:32:32;7.57;;;5.20;;
10005;SDS011;5042;42.626;23.382;2023-06-14T10:35:00;7.35;;;5.70;;
10005;SDS011;5042;42.626;23.382;2023-06-14T10:37:27;8.13;;;6.10;;
10005;SDS011;5042;42.626;23.382;2023-06-14T10:39:54;7.35;;;5.68;;
10005;SDS011;5042;42.626;23.382;2023-06-14T10:42:21;7.70;;;5.47;;
10005;SDS011;5042;42.626;23.382;2023-06-14T10:44:51;6.50;;;5.45;;
10005;SDS011;5042;42.626;23.382;2023-06-14T10:47:24;7.18;;;5.90;;
10005;SDS011;5042;42.626;23.382;2023-06-14T10:49:54;6.55;;;5.82;;
10005;SDS011;5042;42.626;23.382;2023-06-14T10:52:23;7.47;;;5.72;;
10005;SDS011;5042;42.626;23.382;2023-06-14T10:55:06;7.72;;;5.97;;
10005;SDS011;5042;42.626;23.382;2023-06-14T10:57:38;7.20;;;6.32;;
10005;SDS011;5042;42.626;23.382;2023-06-14T11:00:07;6.18;;;5.03;;
10005;SDS011;5042;42.626;23.382;2023-06-14T11:05:55;7.28;;;5.63;;
10005;SDS011;5042;42.626;23.382;2023-06-14T11:08:46;7.05;;;5.63;;
10005;SDS011;5042;42.626;23.382;2023-06-14T11:11:49;8.07;;;4.90;;
10005;SDS011;5042;42.626;23.382;2023-06-14T11:14:20;6.03;;;5.35;;
10005;SDS011;5042;42.626;23.382;2023-06-14T11:16:50;7.30;;;5.50;;
10005;SDS011;5042;42.626;23.382;2023-06-14T11:19:17;5.45;;;4.55;;
10005;SDS011;5042;42.626;23.382;2023-06-14T11:21:48;5.57;;;4.97;;
10005;SDS011;5042;42.626;23.382;2023-06-14T11:24:16;6.28;;;4.57;;
10005;SDS011;5042;42.626;23.382;2023-06-14T11:26:43;5.40;;;4.70;;
10005;SDS011;5042;42.626;23.382;2023-06-14T11:29:10;5.97;;;4.63;;
10005;SDS011;5042;42.626;23.382;2023-06-14T11:31:37;5.10;;;4.55;;
10005;SDS011;5042;42.626;23.382;2023-06-14T11:34:04;5.18;;;4.50;;
10005;SDS011;5042;42.626;23.382;2023-06-14T11:36:33;8.02;;;4.13;;
10005;SDS011;5042;42.626;23.382;2023-06-14T11:39:02;3.78;;;3.47;;
10005;SDS011;5042;42.626;23.382;2023-06-14T11:41:32;5.03;;;4.07;;
10005;SDS011;5042;42.626;23.382;2023-06-14T11:44:00;6.13;;;4.45;;
10005;SDS011;5042;42.626;23.382;2023-06-14T11:46:27;5.10;;;4.47;;
10005;SDS011;5042;42.626;23.382;2023-06-14T11:48:54;7.15;;;4.68;;
10005;SDS011;5042;42.626;23.382;2023-06-14T11:51:21;5.32;;;4.80;;
10005;SDS011;5042;42.626;23.382;2023-06-14T11:53:48;4.63;;;4.22;;
10005;SDS011;5042;42.626;23.382;2023-06-14T11:56:16;5.35;;;4.03;;
10005;SDS011;5042;42.626;23.382;2023-06-14T11:58:43;4.70;;;4.13;;
10005;SDS011;5042;42.626;23.382;2023-06-14T12:01:14;3.88;;;3.47;;
10005;SDS011;5042;42.626;23.382;2023-06-14T12:03:46;6.18;;;4.07;;
10005;SDS011;5042;42.626;23.382;2023-06-14T12:06:14;4.00;;;3.58;;
10005;SDS011;5042;42.626;23.382;2023-06-14T12:08:43;4.60;;;3.58;;
10005;SDS011;5042;42.626;23.382;2023-06-14T12:11:11;4.90;;;4.22;;
10005;SDS011;5042;42.626;23.382;2023-06-14T12:13:40;4.13;;;3.72;;
10005;SDS011;5042;42.626;23.382;2023-06-14T12:16:08;4.05;;;3.72;;
10005;SDS011;5042;42.626;23.382;2023-06-14T12:18:35;5.57;;;4.28;;
10005;SDS011;5042;42.626;23.382;2023-06-14T12:21:03;5.47;;;4.32;;
10005;SDS011;5042;42.626;23.382;2023-06-14T12:23:44;4.30;;;3.90;;
10005;SDS011;5042;42.626;23.382;2023-06-14T12:26:14;4.35;;;3.95;;
10005;SDS011;5042;42.626;23.382;2023-06-14T12:28:43;5.60;;;4.22;;
10005;SDS011;5042;42.626;23.382;2023-06-14T12:31:11;4.35;;;3.92;;
10005;SDS011;5042;42.626;23.382;2023-06-14T12:33:39;6.25;;;4.50;;
10005;SDS011;5042;42.626;23.382;2023-06-14T12:36:06;4.72;;;3.70;;
10005;SDS011;5042;42.626;23.382;2023-06-14T12:38:35;4.07;;;3.78;;
10005;SDS011;5042;42.626;23.382;2023-06-14T12:41:02;4.05;;;3.65;;
10005;SDS011;5042;42.626;23.382;2023-06-14T12:43:29;5.07;;;3.97;;
10005;SDS011;5042;42.626;23.382;2023-06-14T12:45:58;4.32;;;3.92;;
10005;SDS011;5042;42.626;23.382;2023-06-14T12:48:25;4.10;;;3.67;;
10005;SDS011;5042;42.626;23.382;2023-06-14T12:50:52;5.63;;;3.78;;
10005;SDS011;5042;42.626;23.382;2023-06-14T12:53:19;6.25;;;4.05;;
10005;SDS011;5042;42.626;23.382;2023-06-14T12:55:46;4.40;;;4.00;;
10005;SDS011;5042;42.626;23.382;2023-06-14T12:58:13;5.32;;;4.20;;
10005;SDS011;5042;42.626;23.382;2023-06-14T13:00:42;5.22;;;4.28;;
10005;SDS011;5042;42.626;23.382;2023-06-14T13:03:10;5.50;;;4.60;;
10005;SDS011;5042;42.626;23.382;2023-06-14T13:05:37;7.22;;;4.55;;
10005;SDS011;5042;42.626;23.382;2023-06-14T13:08:06;6.30;;;5.20;;
10005;SDS011;5042;42.626;23.382;2023-06-14T13:10:33;7.43;;;5.40;;
10005;SDS011;5042;42.626;23.382;2023-06-14T13:13:00;6.07;;;5.10;;
10005;SDS011;5042;42.626;23.382;2023-06-14T13:15:27;6.43;;;5.45;;
10005;SDS011;5042;42.626;23.382;2023-06-14T13:17:54;6.68;;;5.40;;
10005;SDS011;5042;42.626;23.382;2023-06-14T13:20:22;5.90;;;4.90;;
10005;SDS011;5042;42.626;23.382;2023-06-14T13:22:49;5.68;;;4.57;;
10005;SDS011;5042;42.626;23.382;2023-06-14T13:25:17;5.88;;;5.00;;
10005;SDS011;5042;42.626;23.382;2023-06-14T13:27:44;8.68;;;4.90;;
10005;SDS011;5042;42.626;23.382;2023-06-14T13:30:11;5.47;;;4.57;;
10005;SDS011;5042;42.626;23.382;2023-06-14T13:32:38;6.63;;;4.78;;
10005;SDS011;5042;42.626;23.382;2023-06-14T13:35:05;7.65;;;5.55;;
10005;SDS011;5042;42.626;23.382;2023-06-14T13:37:34;6.78;;;5.22;;
10005;SDS011;5042;42.626;23.382;2023-06-14T13:40:01;7.10;;;5.72;;
10005;SDS011;5042;42.626;23.382;2023-06-14T13:42:28;7.05;;;5.00;;
10005;SDS011;5042;42.626;23.382;2023-06-14T13:44:56;7.20;;;5.13;;
10005;SDS011;5042;42.626;23.382;2023-06-14T13:47:23;7.95;;;5.47;;
10005;SDS011;5042;42.626;23.382;2023-06-14T13:49:50;6.38;;;5.72;;
10005;SDS011;5042;42.626;23.382;2023-06-14T13:52:17;6.45;;;5.63;;
10005;SDS011;5042;42.626;23.382;2023-06-14T13:54:45;5.20;;;4.60;;
10005;SDS011;5042;42.626;23.382;2023-06-14T13:57:11;5.63;;;4.88;;
10005;SDS011;5042;42.626;23.382;2023-06-14T13:59:38;7.10;;;4.85;;
10005;SDS011;5042;42.626;23.382;2023-06-14T14:02:05;7.45;;;4.82;;
10005;SDS011;5042;42.626;23.382;2023-06-14T14:04:32;5.10;;;4.60;;
10005;SDS011;5042;42.626;23.382;2023-06-14T14:07:00;7.35;;;4.95;;
10005;SDS011;5042;42.626;23.382;2023-06-14T14:09:26;5.80;;;4.90;;
10005;SDS011;5042;42.626;23.382;2023-06-14T14:11:54;4.97;;;4.40;;
10005;SDS011;5042;42.626;23.382;2023-06-14T14:14:21;8.10;;;6.47;;
10005;SDS011;5042;42.626;23.382;2023-06-14T14:16:49;6.22;;;4.30;;
10005;SDS011;5042;42.626;23.382;2023-06-14T14:19:18;6.43;;;5.15;;
10005;SDS011;5042;42.626;23.382;2023-06-14T14:21:45;5.90;;;5.00;;
10005;SDS011;5042;42.626;23.382;2023-06-14T14:24:11;5.75;;;5.03;;
10005;SDS011;5042;42.626;23.382;2023-06-14T14:26:38;7.28;;;4.78;;
10005;SDS011;5042;42.626;23.382;2023-06-14T14:29:07;6.18;;;5.10;;
10005;SDS011;5042;42.626;23.382;2023-06-14T14:31:36;6.70;;;4.63;;
10005;SDS011;5042;42.626;23.382;2023-06-14T14:34:03;5.93;;;5.20;;
10005;SDS011;5042;42.626;23.382;2023-06-14T14:36:30;6.15;;;4.85;;
10005;SDS011;5042;42.626;23.382;2023-06-14T14:38:58;7.07;;;4.82;;
10005;SDS011;5042;42.626;23.382;2023-06-14T14:41:25;5.57;;;4.60;;
10005;SDS011;5042;42.626;23.382;2023-06-14T14:43:51;4.95;;;4.38;;
10005;SDS011;5042;42.626;23.382;2023-06-14T14:46:20;5.45;;;4.70;;
10005;SDS011;5042;42.626;23.382;2023-06-14T14:48:46;5.68;;;4.88;;
10005;SDS011;5042;42.626;23.382;2023-06-14T14:51:13;7.57;;;5.40;;